This is the latest recevied weather packets stored in our database for station/object K2ATL. If no packets are shown the sender has not sent any weather packets the latest 10 day(s).
| Time | Temp. | Humidity | Pressure | Rain* | Wind** | Luminosity | Snow |
|---|---|---|---|---|---|---|---|
| 1787697806 | 26.67° C | 63% | 1103.4 hPa | 0 mm | - | 134 W/m² | - |
| 1787697501 | 26.67° C | 61% | 1103.4 hPa | 0 mm | - | 203 W/m² | - |
| 1787697197 | 27.78° C | 60% | 1103.3 hPa | 0 mm | - | 222 W/m² | - |
| 1787696892 | 27.78° C | 61% | 1103.1 hPa | 0 mm | - | 242 W/m² | - |
| 1787696588 | 27.22° C | 65% | 1103.1 hPa | 0 mm | - | 263 W/m² | - |
| 1787696283 | 27.78° C | 59% | 1103.3 hPa | 0 mm | - | 287 W/m² | - |
| 1787695983 | 27.22° C | 62% | 1103.2 hPa | 0 mm | - | 324 W/m² | - |
| 1787695677 | 27.78° C | 58% | 1103.2 hPa | 0 mm | - | 341 W/m² | - |
| 1787695374 | 27.78° C | 63% | 1103.3 hPa | 0 mm | - | 360 W/m² | - |
| 1787695074 | 27.22° C | 58% | 1103.2 hPa | 0 mm | - | 392 W/m² | - |
| 1787694772 | 26.67° C | 60% | 1103.4 hPa | 0 mm | - | 417 W/m² | - |
| 1787694469 | 26.67° C | 59% | 1103.2 hPa | 0 mm | - | 441 W/m² | - |
| 1787694163 | 26.67° C | 58% | 1103.4 hPa | 0 mm | - | 441 W/m² | - |
| 1787693858 | 23.33° C | 66% | 1103.5 hPa | 0 mm | - | 498 W/m² | - |
| 1787693554 | 26.67° C | 60% | 1103.3 hPa | 0 mm | - | 103 W/m² | - |
| 1787693251 | 30° C | 58% | 1103.5 hPa | 0 mm | - | 92 W/m² | - |
| 1787692946 | 28.89° C | 57% | 1103.4 hPa | 0 mm | - | 535 W/m² | - |
| 1787692641 | 27.78° C | 57% | 1103.3 hPa | 0 mm | - | 549 W/m² | - |
| 1787692342 | 27.78° C | 56% | 1103.2 hPa | 0 mm | - | 560 W/m² | - |
| 1787692036 | 27.78° C | 56% | 1103.2 hPa | 0 mm | - | 584 W/m² | - |
| 1787691735 | 27.22° C | 59% | 1103.3 hPa | 0 mm | - | 596 W/m² | - |
| 1787691434 | 28.33° C | 49% | 1103.2 hPa | 0 mm | - | 611 W/m² | - |
| 1787691134 | 27.22° C | 50% | 1103 hPa | 0 mm | - | 630 W/m² | - |
| 1787690829 | 27.22° C | 54% | 1103.3 hPa | 0 mm | - | 644 W/m² | - |
| 1787690529 | 27.78° C | 54% | 1103.2 hPa | 0 mm | - | 659 W/m² | - |
* Rain latest hour (hover to see other rain measurements)
** Current wind speed in m/s (hover to see current wind gust speed)